sensor_id;sensor_type;location;lat;lon;timestamp;P1;durP1;ratioP1;P2;durP2;ratioP2
68583;SDS011;55557;49.220;11.150;2023-06-19T00:01:00;8.13;;;6.13;;
68583;SDS011;55557;49.220;11.150;2023-06-19T00:03:26;6.73;;;5.30;;
68583;SDS011;55557;49.220;11.150;2023-06-19T00:05:52;8.40;;;6.50;;
68583;SDS011;55557;49.220;11.150;2023-06-19T00:08:18;6.33;;;5.27;;
68583;SDS011;55557;49.220;11.150;2023-06-19T00:10:44;7.90;;;5.40;;
68583;SDS011;55557;49.220;11.150;2023-06-19T00:13:10;7.67;;;5.80;;
68583;SDS011;55557;49.220;11.150;2023-06-19T00:15:36;8.43;;;5.60;;
68583;SDS011;55557;49.220;11.150;2023-06-19T00:18:02;8.00;;;5.60;;
68583;SDS011;55557;49.220;11.150;2023-06-19T00:20:29;7.07;;;5.73;;
68583;SDS011;55557;49.220;11.150;2023-06-19T00:22:55;5.83;;;5.17;;
68583;SDS011;55557;49.220;11.150;2023-06-19T00:25:21;6.60;;;4.93;;
68583;SDS011;55557;49.220;11.150;2023-06-19T00:27:47;6.80;;;5.40;;
68583;SDS011;55557;49.220;11.150;2023-06-19T00:30:13;9.93;;;5.53;;
68583;SDS011;55557;49.220;11.150;2023-06-19T00:32:39;7.93;;;6.10;;
68583;SDS011;55557;49.220;11.150;2023-06-19T00:35:15;8.90;;;6.73;;
68583;SDS011;55557;49.220;11.150;2023-06-19T00:37:42;7.23;;;6.20;;
68583;SDS011;55557;49.220;11.150;2023-06-19T00:40:27;8.13;;;6.50;;
68583;SDS011;55557;49.220;11.150;2023-06-19T00:42:53;8.33;;;6.53;;
68583;SDS011;55557;49.220;11.150;2023-06-19T00:45:19;7.87;;;6.83;;
68583;SDS011;55557;49.220;11.150;2023-06-19T00:47:45;9.70;;;6.93;;
68583;SDS011;55557;49.220;11.150;2023-06-19T00:50:11;11.03;;;7.33;;
68583;SDS011;55557;49.220;11.150;2023-06-19T00:52:37;10.73;;;6.57;;
68583;SDS011;55557;49.220;11.150;2023-06-19T00:55:04;8.73;;;6.63;;
68583;SDS011;55557;49.220;11.150;2023-06-19T00:57:30;7.33;;;6.43;;
68583;SDS011;55557;49.220;11.150;2023-06-19T00:59:58;7.43;;;6.57;;
68583;SDS011;55557;49.220;11.150;2023-06-19T01:02:25;10.90;;;6.93;;
68583;SDS011;55557;49.220;11.150;2023-06-19T01:04:51;8.83;;;6.60;;
68583;SDS011;55557;49.220;11.150;2023-06-19T01:07:18;9.43;;;7.17;;
68583;SDS011;55557;49.220;11.150;2023-06-19T01:09:46;8.20;;;6.80;;
68583;SDS011;55557;49.220;11.150;2023-06-19T01:12:18;9.57;;;7.03;;
68583;SDS011;55557;49.220;11.150;2023-06-19T01:15:03;11.00;;;7.67;;
68583;SDS011;55557;49.220;11.150;2023-06-19T01:17:30;8.47;;;6.97;;
68583;SDS011;55557;49.220;11.150;2023-06-19T01:19:56;8.10;;;7.27;;
68583;SDS011;55557;49.220;11.150;2023-06-19T01:22:23;9.70;;;6.97;;
68583;SDS011;55557;49.220;11.150;2023-06-19T01:24:49;9.57;;;7.30;;
68583;SDS011;55557;49.220;11.150;2023-06-19T01:27:15;10.03;;;6.87;;
68583;SDS011;55557;49.220;11.150;2023-06-19T01:29:41;7.23;;;6.37;;
68583;SDS011;55557;49.220;11.150;2023-06-19T01:32:09;9.70;;;7.43;;
68583;SDS011;55557;49.220;11.150;2023-06-19T01:34:36;8.90;;;6.90;;
68583;SDS011;55557;49.220;11.150;2023-06-19T01:37:02;9.80;;;7.17;;
68583;SDS011;55557;49.220;11.150;2023-06-19T01:39:30;8.27;;;6.70;;
68583;SDS011;55557;49.220;11.150;2023-06-19T01:41:57;12.13;;;7.13;;
68583;SDS011;55557;49.220;11.150;2023-06-19T01:44:23;8.37;;;7.07;;
68583;SDS011;55557;49.220;11.150;2023-06-19T01:46:49;9.20;;;6.97;;
68583;SDS011;55557;49.220;11.150;2023-06-19T01:49:16;10.53;;;7.13;;
68583;SDS011;55557;49.220;11.150;2023-06-19T01:51:42;9.27;;;7.23;;
68583;SDS011;55557;49.220;11.150;2023-06-19T01:54:08;9.37;;;7.43;;
68583;SDS011;55557;49.220;11.150;2023-06-19T01:56:34;12.30;;;7.10;;
68583;SDS011;55557;49.220;11.150;2023-06-19T01:59:00;11.70;;;6.77;;
68583;SDS011;55557;49.220;11.150;2023-06-19T02:01:26;9.20;;;7.33;;
68583;SDS011;55557;49.220;11.150;2023-06-19T02:03:52;9.90;;;7.53;;
68583;SDS011;55557;49.220;11.150;2023-06-19T02:06:18;11.10;;;7.67;;
68583;SDS011;55557;49.220;11.150;2023-06-19T02:08:44;7.97;;;6.97;;
68583;SDS011;55557;49.220;11.150;2023-06-19T02:11:10;17.90;;;8.63;;
68583;SDS011;55557;49.220;11.150;2023-06-19T02:13:36;11.90;;;8.40;;
68583;SDS011;55557;49.220;11.150;2023-06-19T02:16:02;11.47;;;8.10;;
68583;SDS011;55557;49.220;11.150;2023-06-19T02:18:28;14.50;;;7.93;;
68583;SDS011;55557;49.220;11.150;2023-06-19T02:20:54;14.17;;;7.87;;
68583;SDS011;55557;49.220;11.150;2023-06-19T02:23:20;11.97;;;8.00;;
68583;SDS011;55557;49.220;11.150;2023-06-19T02:25:46;15.80;;;7.73;;
68583;SDS011;55557;49.220;11.150;2023-06-19T02:28:12;10.23;;;7.70;;
68583;SDS011;55557;49.220;11.150;2023-06-19T02:30:38;13.20;;;7.70;;
68583;SDS011;55557;49.220;11.150;2023-06-19T02:33:03;10.67;;;7.50;;
68583;SDS011;55557;49.220;11.150;2023-06-19T02:35:29;9.77;;;7.90;;
68583;SDS011;55557;49.220;11.150;2023-06-19T02:37:55;13.93;;;7.73;;
68583;SDS011;55557;49.220;11.150;2023-06-19T02:40:22;11.67;;;7.80;;
68583;SDS011;55557;49.220;11.150;2023-06-19T02:42:48;12.37;;;7.33;;
68583;SDS011;55557;49.220;11.150;2023-06-19T02:45:14;10.10;;;7.40;;
68583;SDS011;55557;49.220;11.150;2023-06-19T02:47:41;9.00;;;7.10;;
68583;SDS011;55557;49.220;11.150;2023-06-19T02:50:07;9.37;;;7.27;;
68583;SDS011;55557;49.220;11.150;2023-06-19T02:52:33;12.57;;;7.23;;
68583;SDS011;55557;49.220;11.150;2023-06-19T02:54:59;12.67;;;7.07;;
68583;SDS011;55557;49.220;11.150;2023-06-19T02:57:25;9.90;;;7.33;;
68583;SDS011;55557;49.220;11.150;2023-06-19T02:59:51;10.40;;;7.57;;
68583;SDS011;55557;49.220;11.150;2023-06-19T03:02:17;11.07;;;8.07;;
68583;SDS011;55557;49.220;11.150;2023-06-19T03:04:43;9.77;;;7.73;;
68583;SDS011;55557;49.220;11.150;2023-06-19T03:07:09;14.07;;;8.47;;
68583;SDS011;55557;49.220;11.150;2023-06-19T03:09:35;11.10;;;9.17;;
68583;SDS011;55557;49.220;11.150;2023-06-19T03:12:02;10.33;;;8.20;;
68583;SDS011;55557;49.220;11.150;2023-06-19T03:14:28;11.63;;;7.70;;
68583;SDS011;55557;49.220;11.150;2023-06-19T03:16:54;11.60;;;7.97;;
68583;SDS011;55557;49.220;11.150;2023-06-19T03:19:19;11.03;;;7.30;;
68583;SDS011;55557;49.220;11.150;2023-06-19T03:21:45;12.47;;;7.60;;
68583;SDS011;55557;49.220;11.150;2023-06-19T03:24:11;9.67;;;7.33;;
68583;SDS011;55557;49.220;11.150;2023-06-19T03:26:37;9.73;;;7.20;;
68583;SDS011;55557;49.220;11.150;2023-06-19T03:29:03;12.13;;;7.30;;
68583;SDS011;55557;49.220;11.150;2023-06-19T03:31:29;10.40;;;7.33;;
68583;SDS011;55557;49.220;11.150;2023-06-19T03:33:56;10.03;;;7.60;;
68583;SDS011;55557;49.220;11.150;2023-06-19T03:36:22;9.87;;;7.40;;
68583;SDS011;55557;49.220;11.150;2023-06-19T03:38:48;9.93;;;7.10;;
68583;SDS011;55557;49.220;11.150;2023-06-19T03:41:14;11.20;;;7.57;;
68583;SDS011;55557;49.220;11.150;2023-06-19T03:43:40;11.43;;;7.33;;
68583;SDS011;55557;49.220;11.150;2023-06-19T03:46:06;9.10;;;7.47;;
68583;SDS011;55557;49.220;11.150;2023-06-19T03:48:32;13.27;;;7.30;;
68583;SDS011;55557;49.220;11.150;2023-06-19T03:50:58;11.53;;;6.97;;
68583;SDS011;55557;49.220;11.150;2023-06-19T03:53:24;10.07;;;8.27;;
68583;SDS011;55557;49.220;11.150;2023-06-19T03:55:50;10.80;;;7.40;;
68583;SDS011;55557;49.220;11.150;2023-06-19T03:58:16;9.33;;;7.73;;
68583;SDS011;55557;49.220;11.150;2023-06-19T04:00:42;11.00;;;7.40;;
68583;SDS011;55557;49.220;11.150;2023-06-19T04:03:09;8.70;;;7.13;;
68583;SDS011;55557;49.220;11.150;2023-06-19T04:05:35;8.40;;;7.10;;
68583;SDS011;55557;49.220;11.150;2023-06-19T04:08:01;8.47;;;7.10;;
68583;SDS011;55557;49.220;11.150;2023-06-19T04:10:27;11.70;;;8.80;;
68583;SDS011;55557;49.220;11.150;2023-06-19T04:12:53;9.17;;;7.50;;
68583;SDS011;55557;49.220;11.150;2023-06-19T04:15:20;10.23;;;7.17;;
68583;SDS011;55557;49.220;11.150;2023-06-19T04:17:46;9.67;;;8.00;;
68583;SDS011;55557;49.220;11.150;2023-06-19T04:20:12;11.03;;;7.83;;
68583;SDS011;55557;49.220;11.150;2023-06-19T04:22:39;10.57;;;8.30;;
68583;SDS011;55557;49.220;11.150;2023-06-19T04:25:06;11.30;;;7.77;;
68583;SDS011;55557;49.220;11.150;2023-06-19T04:27:32;10.87;;;8.27;;
68583;SDS011;55557;49.220;11.150;2023-06-19T04:29:58;9.13;;;7.73;;
68583;SDS011;55557;49.220;11.150;2023-06-19T04:32:24;9.47;;;7.47;;
68583;SDS011;55557;49.220;11.150;2023-06-19T04:34:50;13.10;;;7.47;;
68583;SDS011;55557;49.220;11.150;2023-06-19T04:37:16;8.67;;;7.40;;
68583;SDS011;55557;49.220;11.150;2023-06-19T04:39:44;9.77;;;7.37;;
68583;SDS011;55557;49.220;11.150;2023-06-19T04:42:10;11.00;;;7.37;;
68583;SDS011;55557;49.220;11.150;2023-06-19T04:44:37;10.17;;;7.23;;
68583;SDS011;55557;49.220;11.150;2023-06-19T04:47:03;8.90;;;7.13;;
68583;SDS011;55557;49.220;11.150;2023-06-19T04:49:29;10.40;;;7.23;;
68583;SDS011;55557;49.220;11.150;2023-06-19T04:51:58;7.50;;;6.47;;
68583;SDS011;55557;49.220;11.150;2023-06-19T04:54:27;13.73;;;8.10;;
68583;SDS011;55557;49.220;11.150;2023-06-19T04:56:53;8.37;;;7.37;;
68583;SDS011;55557;49.220;11.150;2023-06-19T04:59:19;8.80;;;7.40;;
68583;SDS011;55557;49.220;11.150;2023-06-19T05:01:45;10.10;;;7.63;;
68583;SDS011;55557;49.220;11.150;2023-06-19T05:04:11;9.57;;;7.43;;
68583;SDS011;55557;49.220;11.150;2023-06-19T05:06:37;9.03;;;7.57;;
68583;SDS011;55557;49.220;11.150;2023-06-19T05:09:02;9.63;;;7.57;;
68583;SDS011;55557;49.220;11.150;2023-06-19T05:11:29;8.70;;;7.37;;
68583;SDS011;55557;49.220;11.150;2023-06-19T05:13:55;11.13;;;8.33;;
68583;SDS011;55557;49.220;11.150;2023-06-19T05:16:22;10.10;;;7.90;;
68583;SDS011;55557;49.220;11.150;2023-06-19T05:18:49;9.23;;;7.27;;
68583;SDS011;55557;49.220;11.150;2023-06-19T05:21:16;9.50;;;7.63;;
68583;SDS011;55557;49.220;11.150;2023-06-19T05:23:42;7.90;;;6.93;;
68583;SDS011;55557;49.220;11.150;2023-06-19T05:26:08;9.57;;;7.90;;
68583;SDS011;55557;49.220;11.150;2023-06-19T05:28:34;10.30;;;7.03;;
68583;SDS011;55557;49.220;11.150;2023-06-19T05:31:00;9.50;;;7.63;;
68583;SDS011;55557;49.220;11.150;2023-06-19T05:33:26;11.97;;;8.07;;
68583;SDS011;55557;49.220;11.150;2023-06-19T05:35:52;9.83;;;8.07;;
68583;SDS011;55557;49.220;11.150;2023-06-19T05:38:19;10.97;;;7.97;;
68583;SDS011;55557;49.220;11.150;2023-06-19T05:40:45;11.33;;;7.33;;
68583;SDS011;55557;49.220;11.150;2023-06-19T05:43:11;9.90;;;8.17;;
68583;SDS011;55557;49.220;11.150;2023-06-19T05:45:37;11.30;;;7.60;;
68583;SDS011;55557;49.220;11.150;2023-06-19T05:48:03;11.13;;;7.93;;
68583;SDS011;55557;49.220;11.150;2023-06-19T05:50:29;8.03;;;7.23;;
68583;SDS011;55557;49.220;11.150;2023-06-19T05:52:56;7.57;;;6.77;;
68583;SDS011;55557;49.220;11.150;2023-06-19T05:55:22;9.60;;;8.33;;
68583;SDS011;55557;49.220;11.150;2023-06-19T05:57:50;8.93;;;7.70;;
68583;SDS011;55557;49.220;11.150;2023-06-19T06:00:16;14.97;;;7.80;;
68583;SDS011;55557;49.220;11.150;2023-06-19T06:02:42;9.80;;;8.17;;
68583;SDS011;55557;49.220;11.150;2023-06-19T06:05:08;10.80;;;7.57;;
68583;SDS011;55557;49.220;11.150;2023-06-19T06:07:34;13.57;;;8.70;;
68583;SDS011;55557;49.220;11.150;2023-06-19T06:10:00;10.20;;;7.70;;
68583;SDS011;55557;49.220;11.150;2023-06-19T06:12:26;7.93;;;7.13;;
68583;SDS011;55557;49.220;11.150;2023-06-19T06:14:53;9.53;;;7.67;;
68583;SDS011;55557;49.220;11.150;2023-06-19T06:17:19;9.47;;;7.90;;
68583;SDS011;55557;49.220;11.150;2023-06-19T06:19:45;10.77;;;8.23;;
68583;SDS011;55557;49.220;11.150;2023-06-19T06:22:11;8.83;;;6.90;;
68583;SDS011;55557;49.220;11.150;2023-06-19T06:24:37;10.87;;;7.33;;
68583;SDS011;55557;49.220;11.150;2023-06-19T06:27:03;12.73;;;8.80;;
68583;SDS011;55557;49.220;11.150;2023-06-19T06:29:30;10.00;;;8.10;;
68583;SDS011;55557;49.220;11.150;2023-06-19T06:32:05;10.50;;;8.43;;
68583;SDS011;55557;49.220;11.150;2023-06-19T06:34:31;11.70;;;8.10;;
68583;SDS011;55557;49.220;11.150;2023-06-19T06:36:57;9.43;;;7.07;;
68583;SDS011;55557;49.220;11.150;2023-06-19T06:39:23;8.70;;;7.80;;
68583;SDS011;55557;49.220;11.150;2023-06-19T06:41:49;10.93;;;7.70;;
68583;SDS011;55557;49.220;11.150;2023-06-19T06:44:15;9.07;;;7.50;;
68583;SDS011;55557;49.220;11.150;2023-06-19T06:46:41;11.38;;;8.38;;
68583;SDS011;55557;49.220;11.150;2023-06-19T06:49:07;9.10;;;7.37;;
68583;SDS011;55557;49.220;11.150;2023-06-19T06:51:33;9.57;;;7.63;;
68583;SDS011;55557;49.220;11.150;2023-06-19T06:53:59;10.77;;;8.63;;
68583;SDS011;55557;49.220;11.150;2023-06-19T06:56:25;11.87;;;7.17;;
68583;SDS011;55557;49.220;11.150;2023-06-19T06:58:51;9.83;;;7.57;;
68583;SDS011;55557;49.220;11.150;2023-06-19T07:01:17;10.57;;;8.27;;
68583;SDS011;55557;49.220;11.150;2023-06-19T07:03:43;9.03;;;7.60;;
68583;SDS011;55557;49.220;11.150;2023-06-19T07:06:09;10.90;;;7.43;;
68583;SDS011;55557;49.220;11.150;2023-06-19T07:08:35;8.30;;;6.83;;
68583;SDS011;55557;49.220;11.150;2023-06-19T07:11:02;8.50;;;7.23;;
68583;SDS011;55557;49.220;11.150;2023-06-19T07:13:28;10.90;;;8.03;;
68583;SDS011;55557;49.220;11.150;2023-06-19T07:15:54;8.80;;;7.17;;
68583;SDS011;55557;49.220;11.150;2023-06-19T07:18:20;11.60;;;7.70;;
68583;SDS011;55557;49.220;11.150;2023-06-19T07:20:46;17.30;;;8.13;;
68583;SDS011;55557;49.220;11.150;2023-06-19T07:23:12;11.40;;;7.80;;
68583;SDS011;55557;49.220;11.150;2023-06-19T07:25:37;11.40;;;8.20;;
68583;SDS011;55557;49.220;11.150;2023-06-19T07:28:03;10.03;;;7.93;;
68583;SDS011;55557;49.220;11.150;2023-06-19T07:30:30;8.70;;;7.80;;
68583;SDS011;55557;49.220;11.150;2023-06-19T07:32:56;14.60;;;8.40;;
68583;SDS011;55557;49.220;11.150;2023-06-19T07:35:22;12.27;;;8.37;;
68583;SDS011;55557;49.220;11.150;2023-06-19T07:37:48;9.53;;;8.47;;
68583;SDS011;55557;49.220;11.150;2023-06-19T07:40:14;10.67;;;7.93;;
68583;SDS011;55557;49.220;11.150;2023-06-19T07:42:40;13.00;;;8.87;;
68583;SDS011;55557;49.220;11.150;2023-06-19T07:45:06;8.90;;;7.67;;
68583;SDS011;55557;49.220;11.150;2023-06-19T07:47:32;9.13;;;8.20;;
68583;SDS011;55557;49.220;11.150;2023-06-19T07:49:58;11.83;;;8.83;;
68583;SDS011;55557;49.220;11.150;2023-06-19T07:52:24;9.73;;;7.80;;
68583;SDS011;55557;49.220;11.150;2023-06-19T07:54:54;12.80;;;8.07;;
68583;SDS011;55557;49.220;11.150;2023-06-19T07:57:20;11.53;;;8.13;;
68583;SDS011;55557;49.220;11.150;2023-06-19T07:59:47;9.03;;;7.57;;
68583;SDS011;55557;49.220;11.150;2023-06-19T08:02:13;8.07;;;7.13;;
68583;SDS011;55557;49.220;11.150;2023-06-19T08:04:39;9.97;;;7.23;;
68583;SDS011;55557;49.220;11.150;2023-06-19T08:07:05;8.53;;;7.43;;
68583;SDS011;55557;49.220;11.150;2023-06-19T08:09:31;9.97;;;7.37;;
68583;SDS011;55557;49.220;11.150;2023-06-19T08:11:57;9.50;;;7.30;;
68583;SDS011;55557;49.220;11.150;2023-06-19T08:14:23;11.60;;;7.97;;
68583;SDS011;55557;49.220;11.150;2023-06-19T08:16:49;10.00;;;7.17;;
68583;SDS011;55557;49.220;11.150;2023-06-19T08:19:15;8.73;;;6.03;;
68583;SDS011;55557;49.220;11.150;2023-06-19T08:21:41;8.27;;;5.87;;
68583;SDS011;55557;49.220;11.150;2023-06-19T08:24:07;6.90;;;5.73;;
68583;SDS011;55557;49.220;11.150;2023-06-19T08:26:33;6.77;;;5.40;;
68583;SDS011;55557;49.220;11.150;2023-06-19T08:28:59;6.70;;;5.60;;
68583;SDS011;55557;49.220;11.150;2023-06-19T08:31:25;11.73;;;5.73;;
68583;SDS011;55557;49.220;11.150;2023-06-19T08:33:53;5.97;;;5.20;;
68583;SDS011;55557;49.220;11.150;2023-06-19T08:36:19;10.17;;;5.53;;
68583;SDS011;55557;49.220;11.150;2023-06-19T08:38:45;6.00;;;5.27;;
68583;SDS011;55557;49.220;11.150;2023-06-19T08:41:18;6.07;;;5.43;;
68583;SDS011;55557;49.220;11.150;2023-06-19T08:43:45;6.50;;;5.57;;
68583;SDS011;55557;49.220;11.150;2023-06-19T08:46:15;6.23;;;5.30;;
68583;SDS011;55557;49.220;11.150;2023-06-19T08:48:42;7.43;;;5.37;;
68583;SDS011;55557;49.220;11.150;2023-06-19T08:51:09;7.50;;;5.57;;
68583;SDS011;55557;49.220;11.150;2023-06-19T08:53:36;8.20;;;5.70;;
68583;SDS011;55557;49.220;11.150;2023-06-19T08:56:03;6.90;;;5.50;;
68583;SDS011;55557;49.220;11.150;2023-06-19T08:58:29;6.97;;;5.83;;
68583;SDS011;55557;49.220;11.150;2023-06-19T09:00:57;6.37;;;5.73;;
68583;SDS011;55557;49.220;11.150;2023-06-19T09:03:24;7.00;;;5.73;;
68583;SDS011;55557;49.220;11.150;2023-06-19T09:05:50;9.23;;;5.00;;
68583;SDS011;55557;49.220;11.150;2023-06-19T09:08:17;6.90;;;5.40;;
68583;SDS011;55557;49.220;11.150;2023-06-19T09:10:43;6.43;;;5.20;;
68583;SDS011;55557;49.220;11.150;2023-06-19T09:13:19;8.47;;;5.83;;
68583;SDS011;55557;49.220;11.150;2023-06-19T09:15:45;8.03;;;5.57;;
68583;SDS011;55557;49.220;11.150;2023-06-19T09:18:11;7.33;;;5.67;;
68583;SDS011;55557;49.220;11.150;2023-06-19T09:20:39;5.93;;;5.27;;
68583;SDS011;55557;49.220;11.150;2023-06-19T09:23:09;10.30;;;5.33;;
68583;SDS011;55557;49.220;11.150;2023-06-19T09:25:48;6.27;;;5.07;;
68583;SDS011;55557;49.220;11.150;2023-06-19T09:28:22;7.47;;;5.30;;
68583;SDS011;55557;49.220;11.150;2023-06-19T09:30:51;7.03;;;5.80;;
68583;SDS011;55557;49.220;11.150;2023-06-19T09:33:17;6.73;;;5.40;;
68583;SDS011;55557;49.220;11.150;2023-06-19T09:35:43;6.77;;;5.60;;
68583;SDS011;55557;49.220;11.150;2023-06-19T09:38:10;14.03;;;5.47;;
68583;SDS011;55557;49.220;11.150;2023-06-19T09:40:37;8.47;;;5.40;;
68583;SDS011;55557;49.220;11.150;2023-06-19T09:43:03;7.70;;;5.77;;
68583;SDS011;55557;49.220;11.150;2023-06-19T09:45:30;6.20;;;5.43;;
68583;SDS011;55557;49.220;11.150;2023-06-19T09:47:56;5.43;;;4.67;;
68583;SDS011;55557;49.220;11.150;2023-06-19T09:50:23;6.33;;;5.33;;
68583;SDS011;55557;49.220;11.150;2023-06-19T09:52:52;6.53;;;5.40;;
68583;SDS011;55557;49.220;11.150;2023-06-19T09:55:18;5.37;;;4.87;;
68583;SDS011;55557;49.220;11.150;2023-06-19T09:57:44;7.20;;;5.50;;
68583;SDS011;55557;49.220;11.150;2023-06-19T10:00:11;9.67;;;5.60;;
68583;SDS011;55557;49.220;11.150;2023-06-19T10:02:40;6.83;;;5.13;;
68583;SDS011;55557;49.220;11.150;2023-06-19T10:05:06;5.87;;;5.23;;
68583;SDS011;55557;49.220;11.150;2023-06-19T10:07:38;7.83;;;5.40;;
68583;SDS011;55557;49.220;11.150;2023-06-19T10:12:45;7.33;;;5.33;;
68583;SDS011;55557;49.220;11.150;2023-06-19T10:15:13;5.87;;;5.17;;
68583;SDS011;55557;49.220;11.150;2023-06-19T10:17:50;5.47;;;4.90;;
68583;SDS011;55557;49.220;11.150;2023-06-19T10:20:27;5.67;;;5.00;;
68583;SDS011;55557;49.220;11.150;2023-06-19T10:23:04;7.27;;;4.73;;
68583;SDS011;55557;49.220;11.150;2023-06-19T10:25:34;5.87;;;4.83;;
68583;SDS011;55557;49.220;11.150;2023-06-19T10:28:01;6.57;;;5.13;;
68583;SDS011;55557;49.220;11.150;2023-06-19T10:30:27;8.40;;;4.60;;
68583;SDS011;55557;49.220;11.150;2023-06-19T10:32:56;6.17;;;4.90;;
68583;SDS011;55557;49.220;11.150;2023-06-19T10:35:22;10.20;;;5.17;;
68583;SDS011;55557;49.220;11.150;2023-06-19T10:37:49;7.10;;;4.90;;
68583;SDS011;55557;49.220;11.150;2023-06-19T10:40:16;5.30;;;4.80;;
68583;SDS011;55557;49.220;11.150;2023-06-19T10:42:45;5.17;;;4.30;;
68583;SDS011;55557;49.220;11.150;2023-06-19T10:45:12;4.93;;;4.37;;
68583;SDS011;55557;49.220;11.150;2023-06-19T10:47:39;5.47;;;4.77;;
68583;SDS011;55557;49.220;11.150;2023-06-19T10:50:15;8.33;;;5.07;;
68583;SDS011;55557;49.220;11.150;2023-06-19T10:52:41;7.20;;;4.73;;
68583;SDS011;55557;49.220;11.150;2023-06-19T10:55:08;6.43;;;5.03;;
68583;SDS011;55557;49.220;11.150;2023-06-19T10:57:35;6.17;;;4.90;;
68583;SDS011;55557;49.220;11.150;2023-06-19T11:00:01;7.47;;;4.83;;
68583;SDS011;55557;49.220;11.150;2023-06-19T11:02:31;6.60;;;4.97;;
68583;SDS011;55557;49.220;11.150;2023-06-19T11:04:57;4.87;;;4.23;;
68583;SDS011;55557;49.220;11.150;2023-06-19T11:07:23;6.80;;;4.30;;
68583;SDS011;55557;49.220;11.150;2023-06-19T11:09:49;8.63;;;4.80;;
68583;SDS011;55557;49.220;11.150;2023-06-19T11:12:19;4.70;;;4.20;;
68583;SDS011;55557;49.220;11.150;2023-06-19T11:14:45;6.17;;;4.43;;
68583;SDS011;55557;49.220;11.150;2023-06-19T11:17:11;4.80;;;4.30;;
68583;SDS011;55557;49.220;11.150;2023-06-19T11:19:37;8.97;;;4.57;;
68583;SDS011;55557;49.220;11.150;2023-06-19T11:22:06;5.73;;;4.57;;
68583;SDS011;55557;49.220;11.150;2023-06-19T11:24:33;7.17;;;4.10;;
68583;SDS011;55557;49.220;11.150;2023-06-19T11:27:19;6.97;;;3.90;;
68583;SDS011;55557;49.220;11.150;2023-06-19T11:29:54;6.00;;;4.27;;
68583;SDS011;55557;49.220;11.150;2023-06-19T11:32:20;4.60;;;3.57;;
68583;SDS011;55557;49.220;11.150;2023-06-19T11:34:51;4.10;;;3.70;;
68583;SDS011;55557;49.220;11.150;2023-06-19T11:37:19;5.23;;;3.83;;
68583;SDS011;55557;49.220;11.150;2023-06-19T11:39:46;4.70;;;3.47;;
68583;SDS011;55557;49.220;11.150;2023-06-19T11:42:12;3.50;;;3.00;;
68583;SDS011;55557;49.220;11.150;2023-06-19T11:47:20;3.70;;;3.30;;
68583;SDS011;55557;49.220;11.150;2023-06-19T11:49:50;4.17;;;3.13;;
68583;SDS011;55557;49.220;11.150;2023-06-19T11:52:16;5.10;;;3.30;;
68583;SDS011;55557;49.220;11.150;2023-06-19T11:54:42;6.10;;;3.10;;
68583;SDS011;55557;49.220;11.150;2023-06-19T11:57:09;2.93;;;2.63;;
68583;SDS011;55557;49.220;11.150;2023-06-19T11:59:40;3.10;;;2.77;;
68583;SDS011;55557;49.220;11.150;2023-06-19T12:02:06;3.50;;;3.20;;
68583;SDS011;55557;49.220;11.150;2023-06-19T12:04:32;3.03;;;2.73;;
68583;SDS011;55557;49.220;11.150;2023-06-19T12:06:58;3.43;;;3.07;;
68583;SDS011;55557;49.220;11.150;2023-06-19T12:09:24;2.90;;;2.70;;
68583;SDS011;55557;49.220;11.150;2023-06-19T12:11:50;3.23;;;2.90;;
68583;SDS011;55557;49.220;11.150;2023-06-19T12:14:17;3.37;;;2.70;;
68583;SDS011;55557;49.220;11.150;2023-06-19T12:16:47;3.27;;;2.97;;
68583;SDS011;55557;49.220;11.150;2023-06-19T12:19:14;6.80;;;2.73;;
68583;SDS011;55557;49.220;11.150;2023-06-19T12:25:02;3.30;;;3.00;;
68583;SDS011;55557;49.220;11.150;2023-06-19T12:27:29;3.93;;;2.77;;
68583;SDS011;55557;49.220;11.150;2023-06-19T12:29:55;3.60;;;3.00;;
68583;SDS011;55557;49.220;11.150;2023-06-19T12:32:21;4.13;;;3.00;;
68583;SDS011;55557;49.220;11.150;2023-06-19T12:34:47;3.10;;;2.80;;
68583;SDS011;55557;49.220;11.150;2023-06-19T12:40:41;3.13;;;2.83;;
68583;SDS011;55557;49.220;11.150;2023-06-19T12:49:30;2.80;;;2.43;;
68583;SDS011;55557;49.220;11.150;2023-06-19T12:51:56;4.17;;;2.90;;
68583;SDS011;55557;49.220;11.150;2023-06-19T12:54:22;3.17;;;2.67;;
68583;SDS011;55557;49.220;11.150;2023-06-19T12:56:48;3.90;;;3.37;;
68583;SDS011;55557;49.220;11.150;2023-06-19T12:59:15;13.10;;;3.97;;
68583;SDS011;55557;49.220;11.150;2023-06-19T13:01:41;5.80;;;2.67;;
68583;SDS011;55557;49.220;11.150;2023-06-19T13:04:07;3.93;;;2.90;;
68583;SDS011;55557;49.220;11.150;2023-06-19T13:06:33;4.97;;;3.30;;
68583;SDS011;55557;49.220;11.150;2023-06-19T13:09:01;4.37;;;3.23;;
68583;SDS011;55557;49.220;11.150;2023-06-19T13:11:28;4.80;;;3.20;;
68583;SDS011;55557;49.220;11.150;2023-06-19T13:13:54;3.73;;;3.07;;
68583;SDS011;55557;49.220;11.150;2023-06-19T13:16:20;3.87;;;2.90;;
68583;SDS011;55557;49.220;11.150;2023-06-19T13:18:46;3.70;;;3.03;;
68583;SDS011;55557;49.220;11.150;2023-06-19T13:21:12;3.70;;;2.97;;
68583;SDS011;55557;49.220;11.150;2023-06-19T13:23:40;3.27;;;2.97;;
68583;SDS011;55557;49.220;11.150;2023-06-19T13:26:06;3.50;;;3.10;;
68583;SDS011;55557;49.220;11.150;2023-06-19T13:28:32;4.93;;;2.57;;
68583;SDS011;55557;49.220;11.150;2023-06-19T13:30:58;3.17;;;2.90;;
68583;SDS011;55557;49.220;11.150;2023-06-19T13:33:25;3.20;;;2.90;;
68583;SDS011;55557;49.220;11.150;2023-06-19T13:35:51;3.00;;;2.70;;
68583;SDS011;55557;49.220;11.150;2023-06-19T13:38:17;3.57;;;2.90;;
68583;SDS011;55557;49.220;11.150;2023-06-19T13:40:43;3.27;;;2.97;;
68583;SDS011;55557;49.220;11.150;2023-06-19T13:43:09;3.60;;;2.73;;
68583;SDS011;55557;49.220;11.150;2023-06-19T13:45:35;3.63;;;2.80;;
68583;SDS011;55557;49.220;11.150;2023-06-19T13:48:03;3.57;;;2.67;;
68583;SDS011;55557;49.220;11.150;2023-06-19T13:50:29;6.60;;;2.70;;
68583;SDS011;55557;49.220;11.150;2023-06-19T13:52:55;6.37;;;2.73;;
68583;SDS011;55557;49.220;11.150;2023-06-19T13:55:21;3.10;;;2.80;;
68583;SDS011;55557;49.220;11.150;2023-06-19T13:57:48;5.00;;;2.93;;
68583;SDS011;55557;49.220;11.150;2023-06-19T14:00:14;4.77;;;3.10;;
68583;SDS011;55557;49.220;11.150;2023-06-19T14:02:40;4.27;;;3.33;;
68583;SDS011;55557;49.220;11.150;2023-06-19T14:05:07;4.07;;;3.17;;
68583;SDS011;55557;49.220;11.150;2023-06-19T14:07:34;3.83;;;3.37;;
68583;SDS011;55557;49.220;11.150;2023-06-19T14:10:00;3.37;;;3.03;;
68583;SDS011;55557;49.220;11.150;2023-06-19T14:12:26;3.93;;;2.87;;
68583;SDS011;55557;49.220;11.150;2023-06-19T14:14:52;5.63;;;3.10;;
68583;SDS011;55557;49.220;11.150;2023-06-19T14:17:18;4.27;;;2.73;;
68583;SDS011;55557;49.220;11.150;2023-06-19T14:19:44;4.33;;;3.27;;
68583;SDS011;55557;49.220;11.150;2023-06-19T14:22:10;7.83;;;3.23;;
68583;SDS011;55557;49.220;11.150;2023-06-19T14:24:36;7.00;;;3.13;;
68583;SDS011;55557;49.220;11.150;2023-06-19T14:27:02;3.80;;;2.90;;
68583;SDS011;55557;49.220;11.150;2023-06-19T14:29:28;3.73;;;2.80;;
68583;SDS011;55557;49.220;11.150;2023-06-19T14:31:54;8.77;;;3.43;;
68583;SDS011;55557;49.220;11.150;2023-06-19T14:34:20;4.80;;;3.20;;
68583;SDS011;55557;49.220;11.150;2023-06-19T14:36:46;5.27;;;3.30;;
68583;SDS011;55557;49.220;11.150;2023-06-19T14:39:12;5.77;;;3.60;;
68583;SDS011;55557;49.220;11.150;2023-06-19T14:41:39;3.50;;;2.83;;
68583;SDS011;55557;49.220;11.150;2023-06-19T14:44:05;3.40;;;3.10;;
68583;SDS011;55557;49.220;11.150;2023-06-19T14:46:31;3.33;;;2.60;;